Santa Lucia — A8IP5 — position and weather

sailwx.info

Track history (hours):
 
Tides and Currents Weather Stations Pressure Air Temp Water Temp Dewpoint Dewpoint Depression Visibility Wind Speed Wind Dir Waves Ship Positions

Santa Lucia

Last reported at 2016-Dec-01 10:22 UTC. Time now 2016-Dec-06 19:50 UTC.
Position N 38°46' W 075°02'.

Length 143 m; beam 22 m.

Type: Cargo ship. MMSI: 636091017.

Date/timePositionNaut miles runAvg speedWind from/ knotsBaromVisibWave heightAir tempDewpointWater temp
2016-Dec-01 10:22N 38°46' W 075°02'7 8.4
2016-Dec-01 09:33N 38°53' W 075°05'1716.6
2016-Dec-01 08:33N 39°08' W 075°14'1918.8
2016-Dec-01 07:33N 39°23' W 075°28'1515.3
2016-Dec-01 06:33N 39°37' W 075°35'1212.2
2016-Dec-01 05:33N 39°48' W 075°26'9 9.5
2016-Dec-01 04:33N 39°51' W 075°15'7 6.5
2016-Dec-01 03:33N 39°55' W 075°08'0 0.0
2016-Dec-01 02:32N 39°55' W 075°08'0 0.0
2016-Dec-01 01:26N 39°55' W 075°08'0 0.0
2016-Dec-01 00:29N 39°55' W 075°08'0 0.0
2016-Nov-30 23:33N 39°55' W 075°08'0 0.0
2016-Nov-30 22:29N 39°55' W 075°08'0 0.0
2016-Nov-30 21:32N 39°55' W 075°08'0 0.0
2016-Nov-30 20:31N 39°55' W 075°08'0 0.0
2016-Nov-30 19:32N 39°55' W 075°08'0 0.0
2016-Nov-30 18:33N 39°55' W 075°08'0 0.0
2016-Nov-30 17:31N 39°55' W 075°08'0 0.0
2016-Nov-30 16:33N 39°55' W 075°08'0 0.0
2016-Nov-30 15:32N 39°55' W 075°08'0 0.0
2016-Nov-30 14:32N 39°55' W 075°08'0 0.0
2016-Nov-30 13:33N 39°55' W 075°08'0 0.0
2016-Nov-30 12:33N 39°55' W 075°08'0 0.0
2016-Nov-30 11:33N 39°55' W 075°08'0 0.0
2016-Nov-30 10:32N 39°55' W 075°08'0 0.0
2016-Nov-30 09:32N 39°55' W 075°08'0 0.0
2016-Nov-30 06:04N 39°55' W 075°08'0 0.0
2016-Nov-30 05:32N 39°55' W 075°08'0 0.0
2016-Nov-30 04:27N 39°55' W 075°08'1 1.2
2016-Nov-30 03:33N 39°54' W 075°08'9 8.6
2016-Nov-30 02:34N 39°51' W 075°18'1111.3
2016-Nov-30 01:33N 39°44' W 075°30'1211.8
2016-Nov-30 00:34N 39°32' W 075°33'1413.4
2016-Nov-29 23:33N 39°20' W 075°25'1616.6
2016-Nov-29 22:33N 39°07' W 075°13'  
Track history (hours):
 
Tides and Currents Weather Stations Pressure Air Temp Water Temp Dewpoint Dewpoint Depression Visibility Wind Speed Wind Dir Waves Ship Positions

Santa Lucia

Last reported at 2016-Dec-01 10:22 UTC. Time now 2016-Dec-06 19:50 UTC.
Position N 38°46' W 075°02'.

Length 143 m; beam 22 m.

Type: Cargo ship. MMSI: 636091017.

Date/timePositionNaut miles runAvg speedWind from/ knotsBaromVisibWave heightAir tempDewpointWater temp
2016-Dec-01 10:22N 38°46' W 075°02'7 8.4
2016-Dec-01 09:33N 38°53' W 075°05'1716.6
2016-Dec-01 08:33N 39°08' W 075°14'1918.8
2016-Dec-01 07:33N 39°23' W 075°28'1515.3
2016-Dec-01 06:33N 39°37' W 075°35'1212.2
2016-Dec-01 05:33N 39°48' W 075°26'9 9.5
2016-Dec-01 04:33N 39°51' W 075°15'7 6.5
2016-Dec-01 03:33N 39°55' W 075°08'0 0.0
2016-Dec-01 02:32N 39°55' W 075°08'0 0.0
2016-Dec-01 01:26N 39°55' W 075°08'0 0.0
2016-Dec-01 00:29N 39°55' W 075°08'0 0.0
2016-Nov-30 23:33N 39°55' W 075°08'0 0.0
2016-Nov-30 22:29N 39°55' W 075°08'0 0.0
2016-Nov-30 21:32N 39°55' W 075°08'0 0.0
2016-Nov-30 20:31N 39°55' W 075°08'0 0.0
2016-Nov-30 19:32N 39°55' W 075°08'0 0.0
2016-Nov-30 18:33N 39°55' W 075°08'0 0.0
2016-Nov-30 17:31N 39°55' W 075°08'0 0.0
2016-Nov-30 16:33N 39°55' W 075°08'0 0.0
2016-Nov-30 15:32N 39°55' W 075°08'0 0.0
2016-Nov-30 14:32N 39°55' W 075°08'0 0.0
2016-Nov-30 13:33N 39°55' W 075°08'0 0.0
2016-Nov-30 12:33N 39°55' W 075°08'0 0.0
2016-Nov-30 11:33N 39°55' W 075°08'0 0.0
2016-Nov-30 10:32N 39°55' W 075°08'0 0.0
2016-Nov-30 09:32N 39°55' W 075°08'0 0.0
2016-Nov-30 06:04N 39°55' W 075°08'0 0.0
2016-Nov-30 05:32N 39°55' W 075°08'0 0.0
2016-Nov-30 04:27N 39°55' W 075°08'1 1.2
2016-Nov-30 03:33N 39°54' W 075°08'9 8.6
2016-Nov-30 02:34N 39°51' W 075°18'1111.3
2016-Nov-30 01:33N 39°44' W 075°30'1211.8
2016-Nov-30 00:34N 39°32' W 075°33'1413.4
2016-Nov-29 23:33N 39°20' W 075°25'1616.6
2016-Nov-29 22:33N 39°07' W 075°13'  

Dump ship's entire track history